createdAt,value
2017-05-19T00:01:19.948Z,9.60
2017-05-19T00:03:48.565Z,10.56
2017-05-19T00:06:17.181Z,10.54
2017-05-19T00:08:45.969Z,13.92
2017-05-19T00:11:14.191Z,15.14
2017-05-19T00:13:43.184Z,16.22
2017-05-19T00:16:12.234Z,16.12
2017-05-19T00:18:40.910Z,14.58
2017-05-19T00:21:09.511Z,15.06
2017-05-19T00:23:37.763Z,13.48
2017-05-19T00:26:05.983Z,14.82
2017-05-19T00:28:34.973Z,16.04
2017-05-19T00:31:04.456Z,13.36
2017-05-19T00:33:33.077Z,14.42
2017-05-19T00:36:01.305Z,14.12
2017-05-19T00:38:30.145Z,16.66
2017-05-19T00:40:58.768Z,13.10
2017-05-19T00:43:27.390Z,14.66
2017-05-19T00:45:56.403Z,17.72
2017-05-19T00:48:25.020Z,17.54
2017-05-19T00:50:53.644Z,21.54
2017-05-19T00:53:22.436Z,18.34
2017-05-19T00:55:50.659Z,20.64
2017-05-19T00:58:19.281Z,20.74
2017-05-19T01:00:47.928Z,22.12
2017-05-19T01:03:16.546Z,23.54
2017-05-19T01:05:45.463Z,20.42
2017-05-19T01:08:14.012Z,22.16
2017-05-19T01:10:42.626Z,21.70
2017-05-19T01:13:10.852Z,19.88
2017-05-19T01:15:39.092Z,22.70
2017-05-19T01:18:07.324Z,20.52
2017-05-19T01:20:36.307Z,21.34
2017-05-19T01:23:05.039Z,19.44
2017-05-19T01:25:33.665Z,20.80
2017-05-19T01:28:02.271Z,23.16
2017-05-19T01:30:30.532Z,23.64
2017-05-19T01:32:59.756Z,21.56
2017-05-19T01:35:28.372Z,20.26
2017-05-19T01:37:57.018Z,24.48
2017-05-19T01:40:25.645Z,21.92
2017-05-19T01:42:54.257Z,23.22
2017-05-19T01:45:23.280Z,30.02
2017-05-19T01:47:51.911Z,25.60
2017-05-19T01:50:20.533Z,25.48
2017-05-19T01:52:48.767Z,25.86
2017-05-19T01:55:17.390Z,32.28
2017-05-19T01:57:45.612Z,27.06
2017-05-19T02:00:14.256Z,27.98
2017-05-19T02:02:42.876Z,26.12
2017-05-19T02:05:11.503Z,25.28
2017-05-19T02:07:40.771Z,27.54
2017-05-19T02:10:09.400Z,25.52
2017-05-19T02:12:38.019Z,25.26
2017-05-19T02:15:06.656Z,27.98
2017-05-19T02:17:35.280Z,32.88
2017-05-19T02:20:03.895Z,37.58
2017-05-19T02:22:32.548Z,36.20
2017-05-19T02:25:01.174Z,41.02
2017-05-19T02:27:30.157Z,36.08
2017-05-19T02:29:58.680Z,33.38
2017-05-19T02:32:27.303Z,27.44
2017-05-19T02:34:55.925Z,28.34
2017-05-19T02:37:24.779Z,28.20
2017-05-19T02:39:53.003Z,32.52
2017-05-19T02:42:21.623Z,29.72
2017-05-19T02:44:50.271Z,29.04
2017-05-19T02:47:18.896Z,29.82
2017-05-19T02:49:47.517Z,26.90
2017-05-19T02:52:16.343Z,32.26
2017-05-19T02:54:44.964Z,33.60
2017-05-19T02:57:13.954Z,33.02
2017-05-19T02:59:43.235Z,25.74
2017-05-19T03:02:11.862Z,27.12
2017-05-19T03:04:40.480Z,34.96
2017-05-19T03:07:09.124Z,37.28
2017-05-19T03:09:37.749Z,30.50
2017-05-19T03:12:06.364Z,30.76
2017-05-19T03:14:35.652Z,32.32
2017-05-19T03:17:03.884Z,30.50
2017-05-19T03:19:32.512Z,32.20
2017-05-19T03:22:01.671Z,31.86
2017-05-19T03:24:30.288Z,28.02
2017-05-19T03:26:58.908Z,34.76
2017-05-19T03:29:27.551Z,30.22
2017-05-19T03:31:56.169Z,29.86
2017-05-19T03:34:24.797Z,30.74
2017-05-19T03:36:53.433Z,29.78
2017-05-19T03:39:22.049Z,25.82
2017-05-19T03:41:50.664Z,28.00
2017-05-19T03:44:19.392Z,26.50
2017-05-19T03:46:48.016Z,24.82
2017-05-19T03:49:16.627Z,26.70
2017-05-19T03:51:45.635Z,20.62
2017-05-19T03:54:14.255Z,25.60
2017-05-19T03:56:43.400Z,25.20
2017-05-19T03:59:12.407Z,32.84
2017-05-19T04:01:41.022Z,26.48
2017-05-19T04:04:09.648Z,24.22
2017-05-19T04:06:37.923Z,23.14
2017-05-19T04:09:06.145Z,25.88
2017-05-19T04:11:34.369Z,22.72
2017-05-19T04:14:03.556Z,23.92
2017-05-19T04:16:32.177Z,21.14
2017-05-19T04:19:00.803Z,21.20
2017-05-19T04:21:29.451Z,22.20
2017-05-19T04:23:58.072Z,26.72
2017-05-19T04:26:26.693Z,25.88
2017-05-19T04:28:55.344Z,26.14
2017-05-19T04:31:23.969Z,24.08
2017-05-19T04:33:52.602Z,21.74
2017-05-19T04:36:21.340Z,24.22
2017-05-19T04:38:49.974Z,19.40
2017-05-19T04:41:18.591Z,21.22
2017-05-19T04:43:47.244Z,21.16
2017-05-19T04:46:15.472Z,20.16
2017-05-19T04:48:43.718Z,22.80
2017-05-19T04:51:12.329Z,24.62
2017-05-19T04:53:41.288Z,25.54
2017-05-19T04:56:10.282Z,22.56
2017-05-19T04:58:39.286Z,22.40
2017-05-19T05:01:07.908Z,25.84
2017-05-19T05:03:36.532Z,24.50
2017-05-19T05:06:05.556Z,23.12
2017-05-19T05:08:34.180Z,25.50
2017-05-19T05:11:02.405Z,25.62
2017-05-19T05:13:31.349Z,26.54
2017-05-19T05:15:59.964Z,27.04
2017-05-19T05:18:28.187Z,25.54
2017-05-19T05:20:56.863Z,26.62
2017-05-19T05:23:25.484Z,25.60
2017-05-19T05:25:54.472Z,28.40
2017-05-19T05:28:23.769Z,23.36
2017-05-19T05:30:52.398Z,26.50
2017-05-19T05:33:21.013Z,23.00
2017-05-19T05:35:49.669Z,24.98
2017-05-19T05:38:18.773Z,24.96
2017-05-19T05:40:47.670Z,24.64
2017-05-19T05:43:16.760Z,26.62
2017-05-19T05:45:45.388Z,36.54
2017-05-19T05:48:14.380Z,26.90
2017-05-19T05:50:43.411Z,28.94
2017-05-19T05:53:11.646Z,25.94
2017-05-19T05:55:39.882Z,25.92
2017-05-19T05:58:08.710Z,29.90
2017-05-19T06:00:37.694Z,26.50
2017-05-19T06:03:06.684Z,22.74
2017-05-19T06:05:35.948Z,27.94
2017-05-19T06:08:04.708Z,25.50
2017-05-19T06:10:33.681Z,22.80
2017-05-19T06:13:02.321Z,27.68
2017-05-19T06:15:30.543Z,31.76
2017-05-19T06:17:59.239Z,29.80
2017-05-19T06:20:27.870Z,28.00
2017-05-19T06:22:56.483Z,28.92
2017-05-19T06:25:25.366Z,26.34
2017-05-19T06:27:53.994Z,28.36
2017-05-19T06:30:22.219Z,23.18
2017-05-19T06:32:50.842Z,23.48
2017-05-19T06:35:19.485Z,23.00
2017-05-19T06:37:48.112Z,25.76
2017-05-19T06:40:16.732Z,27.24
2017-05-19T06:42:45.747Z,34.10
2017-05-19T06:45:13.967Z,49.02
2017-05-19T06:47:42.588Z,32.54
2017-05-19T06:50:11.792Z,25.60
2017-05-19T06:52:40.424Z,25.64
2017-05-19T06:55:09.147Z,39.80
2017-05-19T06:57:37.931Z,30.36
2017-05-19T07:00:06.153Z,31.44
2017-05-19T07:02:34.783Z,26.66
2017-05-19T07:05:04.069Z,30.76
2017-05-19T07:07:32.307Z,21.12
2017-05-19T07:10:00.924Z,26.42
2017-05-19T07:12:30.090Z,23.98
2017-05-19T07:14:58.726Z,21.00
2017-05-19T07:17:27.730Z,21.66
2017-05-19T07:19:57.096Z,21.86
2017-05-19T07:22:25.834Z,22.24
2017-05-19T07:24:54.467Z,24.96
2017-05-19T07:27:23.640Z,22.70
2017-05-19T07:29:52.249Z,21.86
2017-05-19T07:32:21.241Z,22.58
2017-05-19T07:34:49.718Z,21.44
2017-05-19T07:37:18.352Z,20.76
2017-05-19T07:39:46.986Z,19.86
2017-05-19T07:42:15.997Z,19.22
2017-05-19T07:44:44.632Z,23.40
2017-05-19T07:47:13.249Z,20.52
2017-05-19T07:49:42.433Z,19.42
2017-05-19T07:52:11.061Z,19.30
2017-05-19T07:54:39.689Z,21.72
2017-05-19T07:57:07.948Z,17.42
2017-05-19T07:59:36.578Z,19.42
2017-05-19T08:02:05.564Z,18.46
2017-05-19T08:04:34.603Z,18.88
2017-05-19T08:07:03.214Z,23.66
2017-05-19T08:09:31.835Z,38.80
2017-05-19T08:12:00.487Z,18.44
2017-05-19T08:14:29.485Z,35.60
2017-05-19T08:16:58.472Z,40.96
2017-05-19T08:19:27.658Z,40.80
2017-05-19T08:21:56.268Z,21.68
2017-05-19T08:24:24.903Z,20.70
2017-05-19T08:26:53.536Z,19.60
2017-05-19T08:29:22.157Z,21.48
2017-05-19T08:31:50.790Z,17.76
2017-05-19T08:34:19.864Z,17.28
2017-05-19T08:36:48.447Z,18.64
2017-05-19T08:39:17.061Z,16.48
2017-05-19T08:41:45.502Z,17.58
2017-05-19T08:44:14.147Z,14.68
2017-05-19T08:46:42.760Z,15.62
2017-05-19T08:49:11.421Z,15.18
2017-05-19T08:51:40.058Z,16.06
2017-05-19T08:54:09.059Z,17.20
2017-05-19T08:56:37.727Z,16.50
2017-05-19T08:59:06.726Z,16.60
2017-05-19T09:01:35.731Z,16.00
2017-05-19T09:04:04.402Z,23.84
2017-05-19T09:06:33.406Z,18.54
2017-05-19T09:09:02.038Z,15.70
2017-05-19T09:11:30.688Z,15.34
2017-05-19T09:13:59.307Z,17.48
2017-05-19T09:16:27.940Z,16.80
2017-05-19T09:18:56.599Z,16.98
2017-05-19T09:21:25.584Z,13.94
2017-05-19T09:23:54.595Z,13.92
2017-05-19T09:26:23.430Z,16.66
2017-05-19T09:28:52.044Z,14.50
2017-05-19T09:31:20.270Z,13.84
2017-05-19T09:33:48.923Z,14.54
2017-05-19T09:36:17.550Z,17.04
2017-05-19T09:38:46.172Z,15.68
2017-05-19T09:41:15.454Z,15.86
2017-05-19T09:43:44.076Z,15.58
2017-05-19T09:46:12.699Z,13.40
2017-05-19T09:48:41.379Z,15.42
2017-05-19T09:51:09.997Z,12.60
2017-05-19T09:53:39.004Z,13.60
2017-05-19T09:56:07.262Z,14.84
2017-05-19T09:58:36.257Z,13.64
2017-05-19T10:01:05.246Z,14.02
2017-05-19T10:03:34.101Z,12.42
2017-05-19T10:06:02.724Z,12.96
2017-05-19T10:08:31.722Z,11.74
2017-05-19T10:11:00.368Z,11.36
2017-05-19T10:13:28.992Z,18.88
2017-05-19T10:15:57.625Z,15.74
2017-05-19T10:18:26.284Z,15.02
2017-05-19T10:20:54.512Z,16.36
2017-05-19T10:23:23.508Z,14.98
2017-05-19T10:25:52.529Z,17.20
2017-05-19T10:28:21.418Z,17.48
2017-05-19T10:30:50.040Z,17.80
2017-05-19T10:33:18.715Z,18.76
2017-05-19T10:35:47.331Z,18.88
2017-05-19T10:38:15.962Z,19.16
2017-05-19T10:40:44.489Z,20.06
2017-05-19T10:45:49.045Z,19.44
2017-05-19T10:48:18.035Z,21.24
2017-05-19T10:50:47.024Z,22.94
2017-05-19T10:53:16.765Z,20.32
2017-05-19T10:55:45.388Z,32.70
2017-05-19T10:58:14.353Z,29.66
2017-05-19T11:00:43.172Z,26.32
2017-05-19T11:03:11.799Z,20.80
2017-05-19T11:05:41.048Z,21.66
2017-05-19T11:08:09.730Z,21.58
2017-05-19T11:10:38.350Z,22.16
2017-05-19T11:13:06.976Z,22.32
2017-05-19T11:15:35.887Z,23.04
2017-05-19T11:18:04.500Z,25.54
2017-05-19T11:20:33.132Z,24.02
2017-05-19T11:23:01.947Z,24.32
2017-05-19T11:25:30.940Z,41.42
2017-05-19T11:27:59.170Z,26.52
2017-05-19T11:30:27.833Z,27.10
2017-05-19T11:32:56.069Z,26.92
2017-05-19T11:35:24.683Z,23.60
2017-05-19T11:37:52.949Z,26.96
2017-05-19T11:40:21.167Z,26.12
2017-05-19T11:42:49.790Z,25.64
2017-05-19T11:45:19.064Z,24.90
2017-05-19T11:47:47.684Z,26.18
2017-05-19T11:50:18.092Z,33.76
2017-05-19T11:52:47.124Z,34.02
2017-05-19T11:55:15.354Z,24.14
2017-05-19T11:57:44.354Z,24.56
2017-05-19T12:00:12.610Z,25.10
2017-05-19T12:02:41.237Z,26.10
2017-05-19T12:05:10.152Z,24.86
2017-05-19T12:07:38.788Z,27.66
2017-05-19T12:10:07.417Z,35.82
2017-05-19T12:12:36.044Z,42.94
2017-05-19T12:15:05.071Z,32.24
2017-05-19T12:17:33.673Z,30.28
2017-05-19T12:20:02.301Z,25.58
2017-05-19T12:22:31.279Z,24.36
2017-05-19T12:24:59.904Z,22.96
2017-05-19T12:27:28.529Z,22.02
2017-05-19T12:29:57.330Z,22.04
2017-05-19T12:32:25.963Z,21.20
2017-05-19T12:34:54.580Z,20.30
2017-05-19T12:37:23.240Z,25.68
2017-05-19T12:39:51.871Z,26.20
2017-05-19T12:42:20.874Z,24.32
2017-05-19T12:44:49.911Z,29.74
2017-05-19T12:47:18.544Z,27.52
2017-05-19T12:49:47.532Z,24.12
2017-05-19T12:52:17.129Z,25.78
2017-05-19T12:54:45.731Z,24.90
2017-05-19T12:57:13.967Z,25.00
2017-05-19T12:59:43.173Z,27.24
2017-05-19T13:02:11.395Z,27.40
2017-05-19T13:04:40.027Z,28.58
2017-05-19T13:07:08.672Z,31.76
2017-05-19T13:09:37.363Z,31.06
2017-05-19T13:12:05.555Z,29.88
2017-05-19T13:14:34.227Z,33.00
2017-05-19T13:17:02.840Z,28.06
2017-05-19T13:19:31.064Z,26.94
2017-05-19T13:21:59.711Z,25.00
2017-05-19T13:24:28.711Z,25.90
2017-05-19T13:26:57.340Z,26.64
2017-05-19T13:29:26.012Z,26.38
2017-05-19T13:31:54.628Z,25.84
2017-05-19T13:34:22.871Z,25.64
2017-05-19T13:36:51.790Z,22.84
2017-05-19T13:39:20.859Z,24.96
2017-05-19T13:41:49.484Z,26.00
2017-05-19T13:44:18.526Z,26.00
2017-05-19T13:46:47.126Z,26.24
2017-05-19T13:49:15.752Z,26.82
2017-05-19T13:51:45.974Z,30.16
2017-05-19T13:54:14.598Z,52.22
2017-05-19T13:56:43.453Z,38.92
2017-05-19T13:59:12.096Z,33.36
2017-05-19T14:01:40.336Z,28.08
2017-05-19T14:04:08.556Z,26.90
2017-05-19T14:06:36.811Z,27.84
2017-05-19T14:09:05.429Z,29.90
2017-05-19T14:11:34.283Z,31.74
2017-05-19T14:14:03.149Z,29.38
2017-05-19T14:16:31.351Z,35.96
2017-05-19T14:18:59.983Z,36.88
2017-05-19T14:21:29.124Z,37.50
2017-05-19T14:23:57.750Z,36.14
2017-05-19T14:26:26.387Z,34.58
2017-05-19T14:28:54.639Z,32.76
2017-05-19T14:31:23.273Z,38.74
2017-05-19T14:33:51.899Z,36.70
2017-05-19T14:36:21.019Z,34.88
2017-05-19T14:38:49.645Z,40.98
2017-05-19T14:41:18.285Z,37.46
2017-05-19T14:43:46.933Z,35.26
2017-05-19T14:46:15.565Z,36.40
2017-05-19T14:48:44.552Z,38.50
2017-05-19T14:51:13.861Z,38.34
2017-05-19T14:53:42.090Z,56.58
2017-05-19T14:56:11.370Z,45.86
2017-05-19T14:58:40.529Z,39.92
2017-05-19T15:01:09.958Z,37.56
2017-05-19T15:03:38.592Z,39.68
2017-05-19T15:06:06.852Z,49.34
2017-05-19T15:08:35.938Z,39.74
2017-05-19T15:11:04.830Z,40.04
2017-05-19T15:13:34.034Z,39.68
2017-05-19T15:16:02.646Z,40.38
2017-05-19T15:18:31.668Z,43.30
2017-05-19T15:20:59.926Z,38.70
2017-05-19T15:23:28.918Z,39.26
2017-05-19T15:25:58.047Z,37.06
2017-05-19T15:28:26.283Z,36.36
2017-05-19T15:30:54.899Z,38.68
2017-05-19T15:33:23.591Z,35.44
2017-05-19T15:35:52.351Z,102.18
2017-05-19T15:38:20.972Z,67.18
2017-05-19T15:40:49.965Z,37.54
2017-05-19T15:43:18.883Z,36.56
2017-05-19T15:45:47.123Z,34.46
2017-05-19T15:48:15.745Z,32.84
2017-05-19T15:50:44.759Z,30.66
2017-05-19T15:53:13.402Z,32.06
2017-05-19T15:55:41.648Z,36.98
2017-05-19T15:58:10.296Z,33.36
2017-05-19T16:00:38.934Z,30.38
2017-05-19T16:03:07.557Z,27.96
2017-05-19T16:05:36.206Z,27.60
2017-05-19T16:08:05.064Z,27.82
2017-05-19T16:10:33.690Z,25.20
2017-05-19T16:13:02.988Z,26.50
2017-05-19T16:15:31.222Z,27.30
2017-05-19T16:17:59.846Z,24.88
2017-05-19T16:20:28.852Z,23.60
2017-05-19T16:22:57.492Z,25.14
2017-05-19T16:25:26.116Z,25.92
2017-05-19T16:27:55.617Z,26.92
2017-05-19T16:30:24.210Z,28.00
2017-05-19T16:32:52.833Z,26.36
2017-05-19T16:35:21.822Z,34.04
2017-05-19T16:37:50.709Z,105.74
2017-05-19T16:40:19.438Z,48.44
2017-05-19T16:42:47.672Z,38.62
2017-05-19T16:45:16.292Z,38.22
2017-05-19T16:47:45.581Z,41.22
2017-05-19T16:50:14.845Z,43.92
2017-05-19T16:52:43.093Z,40.68
2017-05-19T16:55:11.448Z,38.70
2017-05-19T16:57:40.287Z,40.38
2017-05-19T17:00:08.921Z,44.28
2017-05-19T17:02:38.392Z,39.86
2017-05-19T17:05:06.986Z,43.74
2017-05-19T17:07:35.985Z,39.38
2017-05-19T17:10:05.207Z,41.50
2017-05-19T17:12:33.845Z,45.68
2017-05-19T17:15:02.490Z,48.54
2017-05-19T17:17:31.147Z,59.06
2017-05-19T17:19:59.791Z,81.96
2017-05-19T17:22:28.717Z,51.62
2017-05-19T17:24:58.296Z,43.60
2017-05-19T17:27:27.019Z,44.78
2017-05-19T17:29:55.735Z,54.76
2017-05-19T17:32:24.860Z,42.20
2017-05-19T17:34:53.142Z,44.46
2017-05-19T17:37:21.436Z,47.68
2017-05-19T17:39:50.561Z,43.74
2017-05-19T17:42:19.043Z,49.22
2017-05-19T17:44:47.672Z,47.84
2017-05-19T17:47:16.591Z,40.52
2017-05-19T17:49:44.860Z,44.44
2017-05-19T17:52:13.542Z,41.44
2017-05-19T17:54:42.420Z,40.24
2017-05-19T17:57:10.882Z,43.64
2017-05-19T17:59:40.772Z,36.14
2017-05-19T18:02:10.211Z,34.78
2017-05-19T18:04:38.495Z,30.50
2017-05-19T18:07:07.555Z,30.58
2017-05-19T18:09:35.872Z,29.56
2017-05-19T18:12:04.614Z,27.54
2017-05-19T18:14:33.446Z,28.36
2017-05-19T18:17:02.191Z,60.70
2017-05-19T18:19:30.767Z,31.04
2017-05-19T18:21:59.821Z,22.24
2017-05-19T18:24:28.538Z,25.68
2017-05-19T18:26:57.414Z,25.52
2017-05-19T18:29:26.019Z,21.12
2017-05-19T18:31:55.177Z,25.06
2017-05-19T18:34:25.281Z,24.82
2017-05-19T18:36:54.560Z,23.46
2017-05-19T18:39:23.567Z,21.00
2017-05-19T18:41:52.552Z,20.04
2017-05-19T18:44:21.888Z,19.74
2017-05-19T18:46:50.930Z,21.14
2017-05-19T18:49:19.604Z,18.04
2017-05-19T18:51:50.029Z,19.12
2017-05-19T18:54:19.062Z,55.96
2017-05-19T18:56:47.815Z,34.92
2017-05-19T18:59:17.047Z,18.36
2017-05-19T19:01:48.658Z,20.78
2017-05-19T19:04:18.750Z,19.55
2017-05-19T19:06:48.019Z,20.16
2017-05-19T19:09:17.036Z,20.74
2017-05-19T19:11:46.819Z,18.66
2017-05-19T19:14:17.277Z,21.56
2017-05-19T19:16:46.411Z,20.92
2017-05-19T19:19:15.615Z,33.74
2017-05-19T19:21:44.710Z,25.42
2017-05-19T19:24:16.355Z,34.92
2017-05-19T19:26:45.218Z,47.22
2017-05-19T19:29:14.979Z,32.28
2017-05-19T19:31:44.006Z,30.54
2017-05-19T19:34:13.785Z,36.66
2017-05-19T19:36:43.031Z,30.48
2017-05-19T19:39:13.659Z,28.84
2017-05-19T19:41:43.839Z,34.70
2017-05-19T19:44:13.447Z,45.58
2017-05-19T19:46:42.529Z,32.82
2017-05-19T19:49:12.055Z,37.46
2017-05-19T19:51:41.102Z,39.46
2017-05-19T19:54:12.231Z,41.24
2017-05-19T19:56:41.438Z,38.64
2017-05-19T19:59:10.563Z,32.12
2017-05-19T20:01:39.671Z,32.72
2017-05-19T20:04:09.490Z,35.82
2017-05-19T20:06:38.197Z,69.80
2017-05-19T20:09:08.178Z,33.56
2017-05-19T20:11:37.442Z,34.16
2017-05-19T20:14:07.191Z,35.02
2017-05-19T20:16:36.276Z,33.52
2017-05-19T20:19:05.751Z,32.36
2017-05-19T20:21:35.128Z,27.48
2017-05-19T20:24:05.084Z,28.92
2017-05-19T20:26:34.165Z,60.54
2017-05-19T20:29:03.297Z,27.42
2017-05-19T20:31:34.934Z,34.04
2017-05-19T20:34:04.048Z,31.74
2017-05-19T20:36:33.165Z,38.04
2017-05-19T20:39:02.289Z,33.46
2017-05-19T20:41:30.895Z,26.66
2017-05-19T20:43:59.919Z,30.60
2017-05-19T20:46:29.366Z,28.80
2017-05-19T20:48:58.782Z,26.62
2017-05-19T20:51:29.227Z,31.34
2017-05-19T20:53:58.463Z,24.94
2017-05-19T20:56:27.139Z,27.76
2017-05-19T20:58:56.304Z,26.94
2017-05-19T21:01:25.352Z,28.68
2017-05-19T21:03:54.868Z,26.86
2017-05-19T21:06:23.665Z,28.04
2017-05-19T21:08:53.088Z,28.76
2017-05-19T21:11:21.844Z,29.64
2017-05-19T21:13:50.269Z,27.42
2017-05-19T21:16:19.918Z,29.30
2017-05-19T21:18:48.673Z,27.62
2017-05-19T21:21:17.080Z,28.82
2017-05-19T21:23:45.421Z,31.06
2017-05-19T21:26:14.265Z,26.34
2017-05-19T21:28:42.888Z,35.52
2017-05-19T21:31:11.936Z,26.10
2017-05-19T21:33:40.554Z,23.22
2017-05-19T21:36:09.553Z,28.94
2017-05-19T21:38:37.795Z,24.24
2017-05-19T21:41:06.024Z,22.86
2017-05-19T21:43:34.641Z,23.58
2017-05-19T21:46:03.407Z,26.30
2017-05-19T21:48:32.042Z,24.98
2017-05-19T21:51:00.955Z,23.72
2017-05-19T21:53:29.630Z,24.14
2017-05-19T21:55:58.257Z,23.42
2017-05-19T21:58:26.891Z,25.98
2017-05-19T22:00:55.935Z,21.24
2017-05-19T22:03:24.576Z,53.78
2017-05-19T22:05:53.192Z,23.14
2017-05-19T22:08:22.224Z,22.34
2017-05-19T22:21:55.972Z,20.94
2017-05-19T22:24:23.824Z,21.50
2017-05-19T22:26:51.686Z,20.56
2017-05-19T22:29:19.643Z,21.62
2017-05-19T22:31:48.483Z,19.14
2017-05-19T22:34:15.935Z,20.56
2017-05-19T22:36:44.084Z,18.68
2017-05-19T22:39:11.973Z,15.58
2017-05-19T22:41:39.819Z,17.80
2017-05-19T22:44:07.697Z,19.20
2017-05-19T22:46:35.555Z,16.74
2017-05-19T22:49:03.404Z,16.18
2017-05-19T22:51:30.987Z,16.08
2017-05-19T22:53:58.459Z,15.96
2017-05-19T22:56:26.309Z,12.42
2017-05-19T22:58:54.148Z,14.10
2017-05-19T23:01:22.000Z,15.54
2017-05-19T23:03:50.166Z,13.40
2017-05-19T23:06:18.036Z,14.58
2017-05-19T23:08:45.886Z,14.02
2017-05-19T23:11:13.736Z,17.76
2017-05-19T23:13:41.953Z,16.68
2017-05-19T23:16:09.819Z,16.46
2017-05-19T23:18:37.661Z,15.68
2017-05-19T23:21:05.549Z,18.26
2017-05-19T23:23:33.008Z,16.44
2017-05-19T23:26:00.871Z,15.58
2017-05-19T23:28:28.914Z,16.56
2017-05-19T23:30:56.782Z,13.80
2017-05-19T23:33:24.640Z,15.04
2017-05-19T23:35:52.529Z,14.74
2017-05-19T23:38:20.383Z,14.82
2017-05-19T23:40:48.251Z,18.74
2017-05-19T23:43:16.135Z,20.72
2017-05-19T23:45:43.980Z,14.80
2017-05-19T23:48:11.435Z,13.00
2017-05-19T23:50:39.007Z,16.42
2017-05-19T23:53:06.859Z,16.14
2017-05-19T23:55:34.709Z,14.96
2017-05-19T23:58:02.198Z,16.86
